Time;durP1;ratioP1;P1;durP2;ratioP2;P2;SDS_P1;SDS_P2;PMS_P1;PMS_P2;Temp;Humidity;BMP_temperature;BMP_pressure;BME280_temperature;BME280_humidity;BME280_pressure;Samples;Min_cycle;Max_cycle;Signal;HPM_P1;HPM_P2
2023/02/27 00:01:48;;;;;;;0.30;0.30;;;;;;;;;;5020400;28;20494;-74
2023/02/27 00:04:15;;;;;;;0.30;0.30;;;;;;;;;;5017842;28;20622;-73
2023/02/27 00:06:45;;;;;;;0.60;0.60;;;;;;;;;;5003040;28;20573;-74
2023/02/27 00:09:24;;;;;;;;;;;;;;;;;;;;;
2023/02/27 00:11:59;;;;;;;0.10;0.10;;;;;;;;;;5014496;28;20245;-72
2023/02/27 00:14:29;;;;;;;0.73;0.73;;;;;;;;;;5018519;28;20227;-73
2023/02/27 00:16:59;;;;;;;0.50;0.50;;;;;;;;;;5018469;28;20330;-72
2023/02/27 00:19:26;;;;;;;0.98;0.98;;;;;;;;;;5018403;28;20236;-73
2023/02/27 00:21:56;;;;;;;0.88;0.88;;;;;;;;;;5018216;28;20235;-73
2023/02/27 00:24:24;;;;;;;0.55;0.55;;;;;;;;;;5017259;28;20311;-73
2023/02/27 00:26:51;;;;;;;0.63;0.63;;;;;;;;;;5017558;28;20237;-73
2023/02/27 00:29:19;;;;;;;0.85;0.85;;;;;;;;;;5017139;28;20320;-73
2023/02/27 00:31:46;;;;;;;1.33;1.33;;;;;;;;;;5017328;28;20244;-74
2023/02/27 00:34:27;;;;;;;0.85;0.85;;;;;;;;;;5017334;28;20228;-73
2023/02/27 00:37:00;;;;;;;0.93;0.93;;;;;;;;;;5018646;28;20685;-73
2023/02/27 00:39:31;;;;;;;0.77;0.77;;;;;;;;;;5002745;28;20245;-73
2023/02/27 00:41:59;;;;;;;1.05;1.05;;;;;;;;;;4997971;28;20255;-73
2023/02/27 00:44:27;;;;;;;0.38;0.38;;;;;;;;;;4998373;28;20240;-73
2023/02/27 00:46:54;;;;;;;1.05;1.05;;;;;;;;;;4997895;28;20250;-73
2023/02/27 00:49:24;;;;;;;0.50;0.50;;;;;;;;;;4996846;28;20234;-73
2023/02/27 00:51:52;;;;;;;0.93;0.93;;;;;;;;;;4997784;28;20542;-73
2023/02/27 00:54:22;;;;;;;0.90;0.90;;;;;;;;;;4979967;28;20282;-74
2023/02/27 00:56:49;;;;;;;0.57;0.57;;;;;;;;;;5002635;28;20227;-72
2023/02/27 00:59:17;;;;;;;0.70;0.70;;;;;;;;;;5017100;28;20239;-73
2023/02/27 01:01:45;;;;;;;1.30;1.30;;;;;;;;;;5017707;28;20295;-73
2023/02/27 01:04:12;;;;;;;0.63;0.63;;;;;;;;;;5017211;28;20322;-73
2023/02/27 01:06:40;;;;;;;0.95;0.95;;;;;;;;;;5016617;28;20246;-73
2023/02/27 01:09:07;;;;;;;0.73;0.73;;;;;;;;;;5017690;28;20236;-73
2023/02/27 01:11:36;;;;;;;0.98;0.98;;;;;;;;;;5018016;28;20269;-73
2023/02/27 01:14:04;;;;;;;0.80;0.80;;;;;;;;;;5016727;28;20627;-73
2023/02/27 01:16:32;;;;;;;0.75;0.75;;;;;;;;;;5017259;28;20889;-73
2023/02/27 01:19:00;;;;;;;0.52;0.52;;;;;;;;;;5016457;28;20371;-73
2023/02/27 01:21:27;;;;;;;0.35;0.35;;;;;;;;;;5017215;28;20233;-73
2023/02/27 01:23:55;;;;;;;0.45;0.45;;;;;;;;;;5017873;28;20506;-73
2023/02/27 01:26:23;;;;;;;0.50;0.50;;;;;;;;;;5017253;28;20274;-73
2023/02/27 01:28:54;;;;;;;0.52;0.52;;;;;;;;;;5017716;28;20240;-73
2023/02/27 01:31:25;;;;;;;0.45;0.45;;;;;;;;;;5016612;28;20233;-73
2023/02/27 01:33:52;;;;;;;0.45;0.45;;;;;;;;;;5016269;28;20236;-73
2023/02/27 01:36:41;;;;;;;0.80;0.80;;;;;;;;;;5017951;28;20539;-73
2023/02/27 01:39:09;;;;;;;0.93;0.93;;;;;;;;;;5021138;28;20327;-73
2023/02/27 01:41:52;;;;;;;0.55;0.55;;;;;;;;;;5021198;28;20314;-74
2023/02/27 01:44:21;;;;;;;0.43;0.43;;;;;;;;;;5022575;28;20796;-73
2023/02/27 01:46:49;;;;;;;0.57;0.57;;;;;;;;;;5021439;28;20261;-74
2023/02/27 01:49:19;;;;;;;0.25;0.25;;;;;;;;;;5022338;28;20301;-73
2023/02/27 01:51:50;;;;;;;0.20;0.20;;;;;;;;;;5019781;28;20224;-73
2023/02/27 01:54:19;;;;;;;0.20;0.20;;;;;;;;;;5020889;28;20518;-73
2023/02/27 01:56:50;;;;;;;0.43;0.43;;;;;;;;;;5020887;28;20593;-73
2023/02/27 01:59:19;;;;;;;0.28;0.28;;;;;;;;;;5021449;28;20238;-73
2023/02/27 02:01:49;;;;;;;0.45;0.45;;;;;;;;;;5022033;28;20262;-73
2023/02/27 02:04:23;;;;;;;0.25;0.25;;;;;;;;;;5021793;28;20264;-73
2023/02/27 02:06:54;;;;;;;0.35;0.35;;;;;;;;;;5021910;28;20251;-73
2023/02/27 02:09:22;;;;;;;0.30;0.30;;;;;;;;;;5021852;28;20234;-73
2023/02/27 02:11:50;;;;;;;0.30;0.30;;;;;;;;;;5021099;28;20618;-73
2023/02/27 02:14:19;;;;;;;0.55;0.55;;;;;;;;;;5021373;28;20477;-73
2023/02/27 02:16:55;;;;;;;0.30;0.30;;;;;;;;;;5020709;28;20562;-73
2023/02/27 02:19:38;;;;;;;0.75;0.75;;;;;;;;;;5021850;28;20233;-72
2023/02/27 02:22:24;;;;;;;0.60;0.60;;;;;;;;;;5019082;28;20234;-73
2023/02/27 02:25:10;;;;;;;0.82;0.82;;;;;;;;;;5021582;28;20287;-73
2023/02/27 02:27:49;;;;;;;0.52;0.52;;;;;;;;;;5021214;28;20234;-74
2023/02/27 02:30:30;;;;;;;0.82;0.82;;;;;;;;;;5021883;28;20240;-73
2023/02/27 02:36:25;;;;;;;0.50;0.50;;;;;;;;;;5115190;27;20585;-73
2023/02/27 02:39:11;;;;;;;0.20;0.20;;;;;;;;;;5115946;28;20238;-72
2023/02/27 02:41:48;;;;;;;0.52;0.52;;;;;;;;;;5115737;28;20612;-74
2023/02/27 02:44:20;;;;;;;0.40;0.40;;;;;;;;;;5115681;28;20222;-73
2023/02/27 02:46:48;;;;;;;0.63;0.63;;;;;;;;;;5111965;28;20231;-73
2023/02/27 02:49:18;;;;;;;0.20;0.20;;;;;;;;;;5112393;28;20229;-73
2023/02/27 02:51:52;;;;;;;0.85;0.85;;;;;;;;;;5111097;28;20224;-73
2023/02/27 02:54:24;;;;;;;0.45;0.45;;;;;;;;;;5113518;28;20247;-72
2023/02/27 02:56:59;;;;;;;0.35;0.35;;;;;;;;;;5115084;28;20228;-72
2023/02/27 02:59:30;;;;;;;0.80;0.80;;;;;;;;;;5113836;28;20624;-74
2023/02/27 03:01:59;;;;;;;0.50;0.50;;;;;;;;;;5116270;28;20618;-74
2023/02/27 03:04:29;;;;;;;0.63;0.63;;;;;;;;;;5116861;28;20232;-73
2023/02/27 03:07:00;;;;;;;0.60;0.60;;;;;;;;;;5116188;28;20221;-73
2023/02/27 03:09:31;;;;;;;0.75;0.75;;;;;;;;;;5117396;28;20293;-73
2023/02/27 03:12:00;;;;;;;0.38;0.38;;;;;;;;;;5116248;28;20481;-74
2023/02/27 03:14:31;;;;;;;0.28;0.28;;;;;;;;;;5116132;28;20289;-74
2023/02/27 03:17:00;;;;;;;0.22;0.22;;;;;;;;;;5116464;28;20276;-72
2023/02/27 03:19:29;;;;;;;0.40;0.40;;;;;;;;;;5115373;28;20317;-73
2023/02/27 03:22:00;;;;;;;0.20;0.20;;;;;;;;;;5116243;28;20488;-74
2023/02/27 03:24:30;;;;;;;0.17;0.17;;;;;;;;;;5115130;28;20632;-74
2023/02/27 03:27:01;;;;;;;0.32;0.32;;;;;;;;;;5115526;28;20227;-74
2023/02/27 03:29:37;;;;;;;0.75;0.75;;;;;;;;;;5115787;28;20229;-74
2023/02/27 03:32:06;;;;;;;0.10;0.10;;;;;;;;;;5116510;28;20227;-73
2023/02/27 03:34:35;;;;;;;0.30;0.30;;;;;;;;;;5114740;28;20573;-73
2023/02/27 03:37:05;;;;;;;0.47;0.47;;;;;;;;;;5114808;28;20265;-73
2023/02/27 03:39:38;;;;;;;0.40;0.40;;;;;;;;;;5114865;28;20224;-74
2023/02/27 03:42:11;;;;;;;0.40;0.40;;;;;;;;;;5115766;28;20243;-74
2023/02/27 03:44:49;;;;;;;0.45;0.45;;;;;;;;;;5113363;28;20696;-72
2023/02/27 03:47:19;;;;;;;0.70;0.70;;;;;;;;;;5080821;28;20238;-72
2023/02/27 03:49:52;;;;;;;0.70;0.70;;;;;;;;;;5082349;28;20235;-72
2023/02/27 03:52:21;;;;;;;0.60;0.60;;;;;;;;;;5081655;28;20246;-73
2023/02/27 03:54:54;;;;;;;0.20;0.20;;;;;;;;;;5082688;28;20253;-73
2023/02/27 03:57:22;;;;;;;0.88;0.88;;;;;;;;;;5081674;28;20229;-73
2023/02/27 03:59:52;;;;;;;0.32;0.32;;;;;;;;;;5080794;28;20603;-74
2023/02/27 04:02:20;;;;;;;0.63;0.63;;;;;;;;;;5083651;28;20615;-74
2023/02/27 04:04:47;;;;;;;0.20;0.20;;;;;;;;;;5095925;28;20231;-74
2023/02/27 04:07:24;;;;;;;0.60;0.60;;;;;;;;;;5100722;28;20239;-74
2023/02/27 04:10:12;;;;;;;0.20;0.20;;;;;;;;;;5101115;28;20222;-74
2023/02/27 04:12:58;;;;;;;0.70;0.70;;;;;;;;;;5096391;28;20227;-74
2023/02/27 04:15:33;;;;;;;0.50;0.50;;;;;;;;;;5100840;28;20253;-72
2023/02/27 04:18:09;;;;;;;0.70;0.70;;;;;;;;;;5100900;28;20238;-74
2023/02/27 04:20:39;;;;;;;0.50;0.50;;;;;;;;;;5100569;28;20236;-74
2023/02/27 04:23:11;;;;;;;0.30;0.30;;;;;;;;;;5100652;28;20608;-74
2023/02/27 04:26:01;;;;;;;0.17;0.17;;;;;;;;;;5101267;28;20261;-74
2023/02/27 04:28:30;;;;;;;0.32;0.32;;;;;;;;;;5099609;28;20674;-74
2023/02/27 04:31:05;;;;;;;0.10;0.10;;;;;;;;;;5100828;28;20588;-74
2023/02/27 04:33:40;;;;;;;0.65;0.65;;;;;;;;;;5099447;28;20583;-74
2023/02/27 04:36:11;;;;;;;0.25;0.25;;;;;;;;;;5100830;28;20266;-73
2023/02/27 04:38:40;;;;;;;0.70;0.70;;;;;;;;;;5096863;28;20241;-74
2023/02/27 04:41:10;;;;;;;0.20;0.20;;;;;;;;;;5100242;28;20509;-74
2023/02/27 04:43:42;;;;;;;0.35;0.35;;;;;;;;;;5100045;28;20233;-73
2023/02/27 04:46:17;;;;;;;0.55;0.55;;;;;;;;;;5100669;28;20234;-74
2023/02/27 04:48:48;;;;;;;0.30;0.30;;;;;;;;;;5100381;28;20233;-74
2023/02/27 04:51:17;;;;;;;0.30;0.30;;;;;;;;;;5099791;28;20320;-74
2023/02/27 04:53:49;;;;;;;0.52;0.52;;;;;;;;;;5100185;28;20222;-74
2023/02/27 04:56:21;;;;;;;1.10;1.10;;;;;;;;;;5099585;28;20635;-73
2023/02/27 04:58:51;;;;;;;1.17;1.17;;;;;;;;;;5098791;28;20226;-74
2023/02/27 05:01:22;;;;;;;0.35;0.35;;;;;;;;;;5099620;28;20595;-74
2023/02/27 05:03:51;;;;;;;0.65;0.65;;;;;;;;;;5100473;28;20265;-73
2023/02/27 05:06:20;;;;;;;1.17;1.17;;;;;;;;;;5099146;28;20597;-74
2023/02/27 05:08:52;;;;;;;0.57;0.57;;;;;;;;;;5099479;28;20226;-74
2023/02/27 05:11:22;;;;;;;0.38;0.38;;;;;;;;;;5098320;28;20293;-74
2023/02/27 05:13:56;;;;;;;1.00;1.00;;;;;;;;;;5098716;28;20558;-74
2023/02/27 05:16:34;;;;;;;0.43;0.43;;;;;;;;;;5098460;28;20241;-74
2023/02/27 05:19:02;;;;;;;1.38;1.38;;;;;;;;;;5099441;28;20260;-73
2023/02/27 05:21:32;;;;;;;0.82;0.82;;;;;;;;;;5099035;28;20227;-73
2023/02/27 05:24:05;;;;;;;1.65;1.55;;;;;;;;;;5099587;28;20228;-74
2023/02/27 05:26:41;;;;;;;0.40;0.40;;;;;;;;;;5099729;28;20477;-73
2023/02/27 05:29:11;;;;;;;0.50;0.50;;;;;;;;;;5098614;28;20270;-74
2023/02/27 05:31:44;;;;;;;0.73;0.73;;;;;;;;;;5099719;28;20224;-73
2023/02/27 05:34:18;;;;;;;0.38;0.38;;;;;;;;;;5083452;28;20610;-74
2023/02/27 05:36:48;;;;;;;0.45;0.45;;;;;;;;;;5079799;28;20246;-74
2023/02/27 05:39:16;;;;;;;0.30;0.30;;;;;;;;;;5077947;28;20212;-74
2023/02/27 05:41:46;;;;;;;1.00;1.00;;;;;;;;;;5077210;28;20228;-74
2023/02/27 05:44:14;;;;;;;0.40;0.40;;;;;;;;;;5077541;28;20224;-73
2023/02/27 05:46:45;;;;;;;0.10;0.10;;;;;;;;;;5076732;28;20223;-74
2023/02/27 05:49:15;;;;;;;0.10;0.10;;;;;;;;;;5078086;28;20247;-74
2023/02/27 05:51:44;;;;;;;0.10;0.10;;;;;;;;;;5077083;28;20225;-73
2023/02/27 05:54:14;;;;;;;0.60;0.60;;;;;;;;;;5078206;28;20227;-74
2023/02/27 05:56:46;;;;;;;0.30;0.30;;;;;;;;;;5077799;28;20354;-74
2023/02/27 05:59:20;;;;;;;0.10;0.10;;;;;;;;;;5078565;28;20252;-73
2023/02/27 06:01:49;;;;;;;0.10;0.10;;;;;;;;;;5077098;28;20319;-73
2023/02/27 06:04:17;;;;;;;0.35;0.35;;;;;;;;;;5087383;28;20214;-73
2023/02/27 06:06:45;;;;;;;0.30;0.30;;;;;;;;;;5096864;28;20222;-74
2023/02/27 06:09:15;;;;;;;0.43;0.43;;;;;;;;;;5098018;28;20286;-74
2023/02/27 06:11:45;;;;;;;0.35;0.35;;;;;;;;;;5095557;28;20226;-73
2023/02/27 06:14:13;;;;;;;0.20;0.20;;;;;;;;;;5087812;28;20275;-73
2023/02/27 06:16:41;;;;;;;0.25;0.25;;;;;;;;;;5098315;28;20246;-74
2023/02/27 06:19:12;;;;;;;0.85;0.85;;;;;;;;;;5094379;28;20221;-73
2023/02/27 06:21:40;;;;;;;0.35;0.35;;;;;;;;;;5096964;28;20227;-72
2023/02/27 06:24:10;;;;;;;1.45;1.45;;;;;;;;;;5098019;28;20220;-73
2023/02/27 06:26:38;;;;;;;0.35;0.35;;;;;;;;;;5097125;28;20244;-73
2023/02/27 06:29:09;;;;;;;1.00;1.00;;;;;;;;;;5094033;28;20215;-73
2023/02/27 06:31:46;;;;;;;0.63;0.63;;;;;;;;;;5094731;28;20212;-73
2023/02/27 06:34:18;;;;;;;0.75;0.75;;;;;;;;;;5095018;28;20249;-74
2023/02/27 06:36:47;;;;;;;0.38;0.38;;;;;;;;;;5094303;28;20249;-74
2023/02/27 06:39:17;;;;;;;0.52;0.52;;;;;;;;;;5095515;28;20221;-73
2023/02/27 06:41:45;;;;;;;0.77;0.77;;;;;;;;;;5094691;28;20504;-74
2023/02/27 06:44:13;;;;;;;0.52;0.52;;;;;;;;;;5096066;28;20238;-73
2023/02/27 06:46:41;;;;;;;2.50;2.40;;;;;;;;;;5096275;28;20220;-74
2023/02/27 06:49:08;;;;;;;1.15;1.15;;;;;;;;;;5095333;28;20231;-74
2023/02/27 06:51:38;;;;;;;1.40;1.40;;;;;;;;;;5095804;28;20224;-74
2023/02/27 06:54:06;;;;;;;1.17;1.17;;;;;;;;;;5095982;28;20229;-74
2023/02/27 06:56:34;;;;;;;0.60;0.60;;;;;;;;;;5094904;28;20247;-74
2023/02/27 06:59:02;;;;;;;0.60;0.60;;;;;;;;;;5096361;28;20229;-74
2023/02/27 07:01:30;;;;;;;0.60;0.60;;;;;;;;;;5094053;28;20221;-74
2023/02/27 07:03:59;;;;;;;0.30;0.30;;;;;;;;;;5095614;28;20232;-74
2023/02/27 07:06:27;;;;;;;0.35;0.35;;;;;;;;;;5095087;28;20254;-73
2023/02/27 07:08:56;;;;;;;0.43;0.43;;;;;;;;;;5095629;28;20231;-73
2023/02/27 07:11:24;;;;;;;0.85;0.85;;;;;;;;;;5095575;28;20242;-73
2023/02/27 07:13:51;;;;;;;0.32;0.32;;;;;;;;;;5096990;28;20236;-72
2023/02/27 07:16:19;;;;;;;0.90;0.90;;;;;;;;;;5094487;28;20820;-72
2023/02/27 07:18:47;;;;;;;1.95;1.85;;;;;;;;;;5095874;28;20247;-73
2023/02/27 07:21:15;;;;;;;1.55;1.55;;;;;;;;;;5096517;28;20231;-73
2023/02/27 07:23:44;;;;;;;0.38;0.38;;;;;;;;;;5100192;28;20785;-73
2023/02/27 07:26:17;;;;;;;0.77;0.77;;;;;;;;;;5086271;28;20222;-73
2023/02/27 07:28:45;;;;;;;0.85;0.85;;;;;;;;;;5081741;28;20230;-73
2023/02/27 07:31:14;;;;;;;1.17;1.17;;;;;;;;;;5092083;28;20230;-72
2023/02/27 07:33:46;;;;;;;0.57;0.57;;;;;;;;;;5100896;28;20286;-73
2023/02/27 07:36:14;;;;;;;1.15;1.15;;;;;;;;;;5098847;28;20255;-74
2023/02/27 07:38:42;;;;;;;1.35;1.35;;;;;;;;;;5097601;28;20517;-71
2023/02/27 07:41:12;;;;;;;2.50;2.40;;;;;;;;;;5098613;28;20221;-73
2023/02/27 07:43:43;;;;;;;1.60;1.60;;;;;;;;;;5098824;28;20229;-73
2023/02/27 07:46:43;;;;;;;0.65;0.65;;;;;;;;;;5092275;28;20377;-71
2023/02/27 07:52:30;;;;;;;1.38;1.38;;;;;;;;;;5097263;28;20266;-72
2023/02/27 07:55:29;;;;;;;0.73;0.73;;;;;;;;;;5089110;28;20666;-73
2023/02/27 07:58:12;;;;;;;1.02;1.02;;;;;;;;;;5088135;28;20568;-72
2023/02/27 08:00:52;;;;;;;1.10;1.10;;;;;;;;;;5094536;28;20235;-73
2023/02/27 08:03:20;;;;;;;1.42;1.38;;;;;;;;;;5091003;28;20247;-72
2023/02/27 08:05:55;;;;;;;0.80;0.80;;;;;;;;;;5093917;28;20221;-73
2023/02/27 08:08:28;;;;;;;2.25;2.15;;;;;;;;;;5097017;28;20228;-74
2023/02/27 08:13:45;;;;;;;1.77;1.67;;;;;;;;;;5079669;28;20323;-75
2023/02/27 08:16:18;;;;;;;0.65;0.65;;;;;;;;;;5099785;28;20239;-73
2023/02/27 08:18:47;;;;;;;1.15;1.15;;;;;;;;;;5095585;28;20226;-73
2023/02/27 08:21:14;;;;;;;1.15;1.15;;;;;;;;;;5096637;28;20272;-73
2023/02/27 08:26:31;;;;;;;3.40;3.20;;;;;;;;;;5092073;28;20226;-72
2023/02/27 08:29:00;;;;;;;1.98;1.88;;;;;;;;;;5099830;28;20317;-72
2023/02/27 08:31:32;;;;;;;1.83;1.73;;;;;;;;;;5098399;28;20253;-72
2023/02/27 08:34:06;;;;;;;1.80;1.70;;;;;;;;;;5099457;28;20213;-72
2023/02/27 08:36:34;;;;;;;3.25;3.05;;;;;;;;;;5096438;28;20276;-72
2023/02/27 08:39:01;;;;;;;2.00;1.90;;;;;;;;;;5099809;28;20293;-73
2023/02/27 08:41:29;;;;;;;2.08;1.98;;;;;;;;;;5096635;28;20224;-74
2023/02/27 08:43:57;;;;;;;2.08;1.98;;;;;;;;;;5098889;28;20296;-73
2023/02/27 08:46:35;;;;;;;1.83;1.73;;;;;;;;;;5096803;28;20614;-74
2023/02/27 08:49:10;;;;;;;3.30;3.08;;;;;;;;;;5099779;28;20227;-74
2023/02/27 08:52:10;;;;;;;3.58;3.38;;;;;;;;;;5097190;28;20231;-74
2023/02/27 08:54:45;;;;;;;2.53;2.42;;;;;;;;;;5085432;28;20231;-73
2023/02/27 08:57:23;;;;;;;2.25;2.10;;;;;;;;;;5091527;28;20271;-73
2023/02/27 09:00:09;;;;;;;2.78;2.63;;;;;;;;;;5097661;28;20225;-74
2023/02/27 09:06:21;;;;;;;1.50;1.40;;;;;;;;;;5084453;28;20225;-75
2023/02/27 09:09:14;;;;;;;1.48;1.38;;;;;;;;;;5098149;28;20266;-75
2023/02/27 09:11:47;;;;;;;2.80;2.60;;;;;;;;;;5079513;28;20224;-75
2023/02/27 09:14:19;;;;;;;1.67;1.58;;;;;;;;;;5100340;28;20235;-74
2023/02/27 09:16:50;;;;;;;1.65;1.55;;;;;;;;;;5104713;28;20310;-74
2023/02/27 09:19:18;;;;;;;2.03;1.92;;;;;;;;;;5094682;28;20227;-74
2023/02/27 09:21:54;;;;;;;1.65;1.55;;;;;;;;;;5096234;28;20317;-76
2023/02/27 09:27:31;;;;;;;3.63;3.42;;;;;;;;;;5090477;28;20235;-75
2023/02/27 09:30:28;;;;;;;2.50;2.40;;;;;;;;;;5091932;28;20242;-75
2023/02/27 09:36:17;;;;;;;2.38;2.28;;;;;;;;;;5092451;28;20251;-75
2023/02/27 09:38:55;;;;;;;2.67;2.47;;;;;;;;;;5094981;28;20676;-76
2023/02/27 09:41:43;;;;;;;2.05;1.95;;;;;;;;;;5095830;28;20222;-75
2023/02/27 09:47:29;;;;;;;2.00;1.90;;;;;;;;;;5089807;28;20227;-75
2023/02/27 09:50:33;;;;;;;3.20;3.00;;;;;;;;;;5077061;28;20224;-74
2023/02/27 09:53:22;;;;;;;;;;;;;;;;;;;;;
2023/02/27 09:56:06;;;;;;;3.53;3.30;;;;;;;;;;5083649;28;20224;-75
2023/02/27 10:02:24;;;;;;;2.08;1.98;;;;;;;;;;5096427;28;20379;-75
2023/02/27 10:11:43;;;;;;;3.53;3.22;;;;;;;;;;5083228;28;20232;-75
2023/02/27 10:14:43;;;;;;;;;;;;;;;;;;;;;
2023/02/27 10:17:25;;;;;;;3.42;3.22;;;;;;;;;;5103684;28;20247;-76
2023/02/27 10:19:54;;;;;;;2.65;2.45;;;;;;;;;;5118377;28;20226;-75
2023/02/27 10:22:46;;;;;;;4.32;4.03;;;;;;;;;;5117404;28;20663;-74
2023/02/27 10:28:40;;;;;;;5.68;5.28;;;;;;;;;;5107831;28;20228;-74
2023/02/27 10:34:21;;;;;;;2.63;2.42;;;;;;;;;;5118243;27;20212;-75
2023/02/27 10:36:54;;;;;;;3.80;3.55;;;;;;;;;;5102886;28;20249;-75
2023/02/27 10:39:47;;;;;;;2.55;2.45;;;;;;;;;;5116178;28;20216;-76
2023/02/27 10:45:47;;;;;;;1.50;1.40;;;;;;;;;;5116254;28;20282;-74
2023/02/27 10:48:17;;;;;;;2.45;2.35;;;;;;;;;;5098065;28;20217;-74
2023/02/27 10:50:57;;;;;;;1.73;1.63;;;;;;;;;;5117836;28;20650;-74
2023/02/27 10:53:54;;;;;;;2.38;2.17;;;;;;;;;;5117428;28;20223;-73
2023/02/27 10:56:35;;;;;;;1.92;1.83;;;;;;;;;;5110360;28;20237;-74
2023/02/27 10:59:22;;;;;;;1.95;1.85;;;;;;;;;;5110924;28;20328;-76
2023/02/27 11:02:01;;;;;;;1.88;1.77;;;;;;;;;;5118841;28;20212;-74
2023/02/27 11:04:38;;;;;;;1.77;1.67;;;;;;;;;;5121872;28;20258;-73
2023/02/27 11:07:27;;;;;;;1.27;1.23;;;;;;;;;;5121260;28;20223;-73
2023/02/27 11:10:04;;;;;;;1.70;1.60;;;;;;;;;;5100799;28;20229;-73
2023/02/27 11:15:33;;;;;;;0.73;0.73;;;;;;;;;;5120982;28;20214;-74
2023/02/27 11:18:22;;;;;;;2.20;2.10;;;;;;;;;;5123014;28;20498;-74
2023/02/27 11:20:50;;;;;;;2.35;2.25;;;;;;;;;;5122027;28;20318;-75
2023/02/27 11:23:28;;;;;;;1.00;1.00;;;;;;;;;;5118650;28;20264;-74
2023/02/27 11:26:12;;;;;;;1.75;1.65;;;;;;;;;;5100279;28;20250;-74
2023/02/27 11:28:40;;;;;;;7.10;6.60;;;;;;;;;;5103513;28;20610;-74
2023/02/27 11:31:18;;;;;;;2.40;2.30;;;;;;;;;;5111359;28;20223;-75
2023/02/27 11:33:55;;;;;;;2.20;2.10;;;;;;;;;;5119184;28;20234;-74
2023/02/27 11:36:24;;;;;;;2.95;2.75;;;;;;;;;;5119235;28;20334;-74
2023/02/27 11:38:55;;;;;;;3.97;3.72;;;;;;;;;;5117806;27;20592;-74
2023/02/27 11:44:56;;;;;;;3.10;2.95;;;;;;;;;;5120409;28;20208;-74
2023/02/27 11:47:27;;;;;;;2.10;2.00;;;;;;;;;;5120890;28;20566;-74
2023/02/27 11:50:18;;;;;;;2.97;2.75;;;;;;;;;;5119260;28;20225;-74
2023/02/27 11:52:50;;;;;;;2.22;2.10;;;;;;;;;;5102793;28;20223;-74
2023/02/27 11:55:22;;;;;;;3.08;2.90;;;;;;;;;;5099499;28;20212;-73
2023/02/27 11:58:00;;;;;;;2.28;2.15;;;;;;;;;;5101234;28;20235;-73
2023/02/27 12:00:34;;;;;;;2.63;2.47;;;;;;;;;;5099104;28;20330;-74
2023/02/27 12:03:14;;;;;;;2.10;2.00;;;;;;;;;;5099830;28;20209;-73
2023/02/27 12:05:53;;;;;;;2.13;2.03;;;;;;;;;;5116665;27;20217;-74
2023/02/27 12:08:43;;;;;;;1.55;1.45;;;;;;;;;;5114609;28;20269;-74
2023/02/27 12:14:36;;;;;;;3.75;3.53;;;;;;;;;;5074254;28;20273;-73
2023/02/27 12:17:19;;;;;;;2.55;2.45;;;;;;;;;;5097935;28;20246;-74
2023/02/27 12:20:00;;;;;;;1.27;1.27;;;;;;;;;;5100442;28;20247;-72
2023/02/27 12:22:44;;;;;;;2.15;2.05;;;;;;;;;;5099014;28;20225;-72
2023/02/27 12:25:23;;;;;;;1.48;1.42;;;;;;;;;;5099222;28;20610;-72
2023/02/27 12:31:22;;;;;;;2.47;2.35;;;;;;;;;;5095887;28;20246;-73
2023/02/27 12:36:50;;;;;;;2.47;2.38;;;;;;;;;;5085378;28;20274;-73
2023/02/27 12:39:27;;;;;;;1.83;1.73;;;;;;;;;;5120814;28;20216;-72
2023/02/27 12:42:17;;;;;;;2.03;1.93;;;;;;;;;;5111740;28;20705;-74
2023/02/27 12:45:19;;;;;;;1.90;1.80;;;;;;;;;;5100859;28;20492;-75
2023/02/27 12:47:54;;;;;;;3.20;3.00;;;;;;;;;;5055121;28;20521;-74
2023/02/27 12:50:28;;;;;;;3.60;3.40;;;;;;;;;;5101058;28;20480;-74
2023/02/27 12:53:05;;;;;;;1.08;1.08;;;;;;;;;;5099883;28;20486;-75
2023/02/27 12:55:36;;;;;;;3.73;3.50;;;;;;;;;;5106659;28;20856;-73
2023/02/27 12:58:16;;;;;;;1.23;1.23;;;;;;;;;;5120997;28;20498;-75
2023/02/27 13:01:13;;;;;;;;;;;;;;;;;;;;;
2023/02/27 13:13:37;;;;;;;4.28;4.07;;;;;;;;;;5104333;28;20474;-74
2023/02/27 13:16:12;;;;;;;4.28;4.05;;;;;;;;;;5105283;28;20217;-74
2023/02/27 13:18:58;;;;;;;2.65;2.55;;;;;;;;;;5108953;27;20252;-74
2023/02/27 13:22:07;;;;;;;3.00;2.85;;;;;;;;;;5111728;28;20213;-74
2023/02/27 13:31:16;;;;;;;3.00;2.85;;;;;;;;;;5079240;28;20225;-75
2023/02/27 13:34:02;;;;;;;3.28;3.08;;;;;;;;;;5107295;28;20213;-74
2023/02/27 13:36:44;;;;;;;2.63;2.42;;;;;;;;;;5108347;28;20220;-75
2023/02/27 13:39:42;;;;;;;3.80;3.60;;;;;;;;;;5115056;28;20582;-75
2023/02/27 13:58:54;;;;;;;6.97;6.40;;;;;;;;;;5016866;28;20652;-74
2023/02/27 14:23:11;;;;;;;4.00;3.70;;;;;;;;;;5129115;27;20300;-73
2023/02/27 14:44:27;;;;;;;2.85;2.70;;;;;;;;;;5132448;27;20510;-74
2023/02/27 14:56:42;;;;;;;2.42;2.33;;;;;;;;;;5025316;28;20827;-72
2023/02/27 15:02:30;;;;;;;1.13;1.13;;;;;;;;;;5065744;28;20281;-73
2023/02/27 15:05:15;;;;;;;3.55;3.35;;;;;;;;;;5111117;28;20217;-72
2023/02/27 15:07:52;;;;;;;2.70;2.55;;;;;;;;;;5115149;28;20225;-72
2023/02/27 15:13:44;;;;;;;1.80;1.75;;;;;;;;;;5117304;28;20319;-72
2023/02/27 15:16:45;;;;;;;3.40;3.22;;;;;;;;;;5112988;28;20748;-72
2023/02/27 15:22:40;;;;;;;2.03;1.98;;;;;;;;;;5102450;28;20228;-73
2023/02/27 15:25:26;;;;;;;1.55;1.52;;;;;;;;;;5115529;28;20655;-73
2023/02/27 15:31:11;;;;;;;1.02;1.02;;;;;;;;;;5112412;28;20221;-73
2023/02/27 15:36:56;;;;;;;3.08;2.88;;;;;;;;;;5112169;28;20263;-73
2023/02/27 15:43:14;;;;;;;1.95;1.88;;;;;;;;;;5108666;28;20316;-72
2023/02/27 15:46:08;;;;;;;3.65;3.45;;;;;;;;;;5107701;28;20866;-72
2023/02/27 15:49:07;;;;;;;2.70;2.60;;;;;;;;;;5116868;28;20220;-73
2023/02/27 15:52:21;;;;;;;2.42;2.33;;;;;;;;;;5108797;28;20225;-73
2023/02/27 15:55:07;;;;;;;2.15;2.05;;;;;;;;;;5114131;27;20651;-73
2023/02/27 15:57:40;;;;;;;3.92;3.63;;;;;;;;;;5120390;27;20246;-73
2023/02/27 16:03:33;;;;;;;3.28;3.13;;;;;;;;;;5108881;27;20248;-72
2023/02/27 16:06:29;;;;;;;3.55;3.35;;;;;;;;;;5116719;27;20593;-73
2023/02/27 16:09:08;;;;;;;3.05;2.95;;;;;;;;;;5110781;27;20208;-72
2023/02/27 16:12:25;;;;;;;2.33;2.22;;;;;;;;;;5112375;28;20232;-72
2023/02/27 16:15:24;;;;;;;4.85;4.65;;;;;;;;;;5106043;28;20220;-72
2023/02/27 16:18:08;;;;;;;3.45;3.25;;;;;;;;;;5114564;28;20236;-72
2023/02/27 16:20:43;;;;;;;3.28;3.17;;;;;;;;;;5116774;28;20227;-72
2023/02/27 16:23:23;;;;;;;2.80;2.70;;;;;;;;;;5119767;28;20211;-73
2023/02/27 16:26:13;;;;;;;2.15;2.05;;;;;;;;;;5106850;28;20252;-73
2023/02/27 16:29:16;;;;;;;2.55;2.45;;;;;;;;;;5128945;27;20224;-74
2023/02/27 16:32:04;;;;;;;2.70;2.60;;;;;;;;;;5114988;28;20260;-74
2023/02/27 16:34:49;;;;;;;3.05;2.95;;;;;;;;;;5109888;28;20275;-74
2023/02/27 16:37:23;;;;;;;2.60;2.50;;;;;;;;;;5116486;28;20232;-73
2023/02/27 16:39:53;;;;;;;2.20;2.10;;;;;;;;;;5126495;27;20220;-74
2023/02/27 16:42:21;;;;;;;2.60;2.45;;;;;;;;;;5120410;28;20734;-73
2023/02/27 16:44:53;;;;;;;3.67;3.47;;;;;;;;;;5128269;27;20229;-73
2023/02/27 16:47:28;;;;;;;2.05;1.95;;;;;;;;;;5130046;27;20221;-73
2023/02/27 16:50:20;;;;;;;3.75;3.55;;;;;;;;;;5110159;28;20258;-73
2023/02/27 16:53:06;;;;;;;2.35;2.25;;;;;;;;;;5120035;27;20740;-74
2023/02/27 16:55:34;;;;;;;2.15;2.05;;;;;;;;;;5124855;27;20378;-73
2023/02/27 16:58:05;;;;;;;2.00;1.90;;;;;;;;;;5116821;28;20240;-73
2023/02/27 17:01:03;;;;;;;2.35;2.25;;;;;;;;;;5114027;28;20221;-72
2023/02/27 17:03:48;;;;;;;1.83;1.73;;;;;;;;;;5117544;28;20274;-73
2023/02/27 17:12:07;;;;;;;3.15;2.97;;;;;;;;;;5117987;28;20227;-72
2023/02/27 17:14:44;;;;;;;3.17;3.03;;;;;;;;;;5118764;27;20229;-72
2023/02/27 17:20:52;;;;;;;1.55;1.45;;;;;;;;;;5097686;28;20256;-73
2023/02/27 17:23:25;;;;;;;2.13;2.03;;;;;;;;;;5119464;28;20306;-73
2023/02/27 17:25:53;;;;;;;1.98;1.88;;;;;;;;;;5114642;28;20233;-73
2023/02/27 17:28:21;;;;;;;2.22;2.13;;;;;;;;;;5115823;28;20279;-72
2023/02/27 17:30:55;;;;;;;2.70;2.60;;;;;;;;;;5098417;28;20209;-71
2023/02/27 17:33:23;;;;;;;1.20;1.20;;;;;;;;;;5117804;28;20228;-72
2023/02/27 17:35:52;;;;;;;2.60;2.50;;;;;;;;;;5117410;28;20230;-72
2023/02/27 17:38:20;;;;;;;2.47;2.35;;;;;;;;;;5121299;27;20258;-70
2023/02/27 17:40:51;;;;;;;1.95;1.85;;;;;;;;;;5120748;28;20235;-73
2023/02/27 17:46:37;;;;;;;0.90;0.90;;;;;;;;;;5128890;27;20248;-73
2023/02/27 17:55:02;;;;;;;0.50;0.50;;;;;;;;;;5014061;28;20231;-71
2023/02/27 17:57:35;;;;;;;0.85;0.85;;;;;;;;;;5069059;27;20240;-72
2023/02/27 18:00:05;;;;;;;0.88;0.88;;;;;;;;;;5023797;28;20232;-72
2023/02/27 18:02:38;;;;;;;1.42;1.35;;;;;;;;;;5035081;28;20228;-73
2023/02/27 18:05:16;;;;;;;2.00;1.90;;;;;;;;;;5129728;27;20212;-73
2023/02/27 18:07:58;;;;;;;1.95;1.85;;;;;;;;;;5021500;28;20519;-72
2023/02/27 18:10:33;;;;;;;4.00;3.72;;;;;;;;;;5034082;28;20300;-72
2023/02/27 18:13:12;;;;;;;0.80;0.80;;;;;;;;;;5037397;28;20628;-72
2023/02/27 18:16:00;;;;;;;2.03;1.92;;;;;;;;;;5038520;27;20219;-74
2023/02/27 18:18:42;;;;;;;2.13;2.03;;;;;;;;;;5017996;28;20301;-72
2023/02/27 18:24:31;;;;;;;;;;;;;;;;;;;;;
2023/02/27 18:27:16;;;;;;;1.63;1.55;;;;;;;;;;5034095;28;20221;-73
2023/02/27 18:29:46;;;;;;;0.50;0.50;;;;;;;;;;5031365;28;20257;-72
2023/02/27 18:32:16;;;;;;;1.73;1.63;;;;;;;;;;5035870;28;20604;-72
2023/02/27 18:34:44;;;;;;;0.70;0.70;;;;;;;;;;5036906;27;20224;-72
2023/02/27 18:37:19;;;;;;;1.35;1.25;;;;;;;;;;5033726;28;20526;-74
2023/02/27 18:40:04;;;;;;;0.50;0.50;;;;;;;;;;5036517;28;20241;-74
2023/02/27 18:42:37;;;;;;;0.75;0.75;;;;;;;;;;5030064;28;20224;-74
2023/02/27 18:48:15;;;;;;;0.25;0.25;;;;;;;;;;5032393;28;20219;-74